createdAt,value
2019-05-16T00:01:48.845Z,101900.00
2019-05-16T00:04:18.374Z,101900.00
2019-05-16T00:06:48.156Z,101904.00
2019-05-16T00:09:18.323Z,101900.00
2019-05-16T00:11:48.795Z,101903.00
2019-05-16T00:14:18.886Z,101900.00
2019-05-16T00:16:48.501Z,101904.00
2019-05-16T00:19:18.227Z,101892.00
2019-05-16T00:21:48.817Z,101897.00
2019-05-16T00:24:18.765Z,101900.00
2019-05-16T00:26:48.193Z,101897.00
2019-05-16T00:29:18.398Z,101901.00
2019-05-16T00:31:48.695Z,101897.00
2019-05-16T00:34:18.847Z,101902.00
2019-05-16T00:36:48.861Z,101896.00
2019-05-16T00:39:18.828Z,101894.00
2019-05-16T00:41:48.310Z,101889.00
2019-05-16T00:44:18.953Z,101885.00
2019-05-16T00:46:48.718Z,101888.00
2019-05-16T00:49:18.691Z,101880.00
2019-05-16T00:51:48.258Z,101877.00
2019-05-16T00:54:18.596Z,101881.00
2019-05-16T00:56:48.767Z,101884.00
2019-05-16T00:59:19.504Z,101880.00
2019-05-16T01:01:49.960Z,101874.00
2019-05-16T01:04:19.841Z,101882.00
2019-05-16T01:06:49.355Z,101874.00
2019-05-16T01:09:18.967Z,101869.00
2019-05-16T01:11:48.729Z,101873.00
2019-05-16T01:14:18.389Z,101870.00
2019-05-16T01:16:48.815Z,101864.00
2019-05-16T01:19:18.747Z,101860.00
2019-05-16T01:21:48.492Z,101856.00
2019-05-16T01:24:18.811Z,101855.00
2019-05-16T01:26:48.534Z,101855.00
2019-05-16T01:29:18.809Z,101860.00
2019-05-16T01:31:48.499Z,101856.00
2019-05-16T01:34:18.214Z,101856.00
2019-05-16T01:36:48.658Z,101860.00
2019-05-16T01:39:18.419Z,101850.00
2019-05-16T01:41:48.164Z,101845.00
2019-05-16T01:44:18.331Z,101846.00
2019-05-16T01:46:48.210Z,101843.00
2019-05-16T01:49:18.735Z,101852.00
2019-05-16T01:51:48.595Z,101845.00
2019-05-16T01:54:18.142Z,101843.00
2019-05-16T01:56:48.085Z,101837.00
2019-05-16T01:59:18.191Z,101844.00
2019-05-16T02:01:48.375Z,101841.00
2019-05-16T02:04:18.473Z,101839.00
2019-05-16T02:06:53.741Z,101835.00
2019-05-16T02:09:19.339Z,101833.00
2019-05-16T02:11:48.799Z,101828.00
2019-05-16T02:14:18.287Z,101825.00
2019-05-16T02:16:47.821Z,101823.00
2019-05-16T02:19:18.840Z,101827.00
2019-05-16T02:21:50.662Z,101823.00
2019-05-16T02:24:19.622Z,101817.00
2019-05-16T02:26:52.314Z,101822.00
2019-05-16T02:29:20.645Z,101811.00
2019-05-16T02:31:51.361Z,101811.00
2019-05-16T02:34:21.878Z,101812.00
2019-05-16T02:37:10.334Z,101804.00
2019-05-16T02:39:22.973Z,101805.00
2019-05-16T02:41:52.468Z,101809.00
2019-05-16T02:44:24.594Z,101801.00
2019-05-16T02:46:53.165Z,101795.00
2019-05-16T02:49:22.666Z,101795.00
2019-05-16T02:51:52.137Z,101795.00
2019-05-16T02:54:22.026Z,101795.00
2019-05-16T02:56:51.575Z,101795.00
2019-05-16T02:59:21.119Z,101789.00
2019-05-16T03:01:52.168Z,101797.00
2019-05-16T03:04:22.038Z,101792.00
2019-05-16T03:06:52.600Z,101790.00
2019-05-16T03:09:22.754Z,101783.00
2019-05-16T03:11:53.059Z,101791.00
2019-05-16T03:14:23.504Z,101783.00
2019-05-16T03:16:56.450Z,101789.00
2019-05-16T03:19:31.100Z,101780.00
2019-05-16T03:22:04.269Z,101779.00
2019-05-16T03:24:34.247Z,101774.00
2019-05-16T03:27:03.962Z,101779.00
2019-05-16T03:29:33.444Z,101775.00
2019-05-16T03:32:03.580Z,101771.00
2019-05-16T03:34:34.442Z,101764.00
2019-05-16T03:37:04.985Z,101765.00
2019-05-16T03:39:34.862Z,101766.00
2019-05-16T03:42:04.188Z,101762.00
2019-05-16T03:44:33.681Z,101760.00
2019-05-16T03:47:03.749Z,101765.00
2019-05-16T03:49:33.288Z,101762.00
2019-05-16T03:52:03.036Z,101771.00
2019-05-16T03:54:32.485Z,101774.00
2019-05-16T03:57:02.033Z,101775.00
2019-05-16T03:59:31.684Z,101771.00
2019-05-16T04:02:01.635Z,101769.00
2019-05-16T04:04:31.342Z,101764.00
2019-05-16T04:07:01.572Z,101761.00
2019-05-16T04:09:31.623Z,101764.00
2019-05-16T04:12:02.068Z,101764.00
2019-05-16T04:14:31.672Z,101760.00
2019-05-16T04:17:01.599Z,101758.00
2019-05-16T04:19:31.577Z,101749.00
2019-05-16T04:22:01.507Z,101753.00
2019-05-16T04:24:31.787Z,101756.00
2019-05-16T04:27:01.353Z,101755.00
2019-05-16T04:29:31.604Z,101758.00
2019-05-16T04:32:01.871Z,101752.00
2019-05-16T04:34:31.443Z,101745.00
2019-05-16T04:37:01.377Z,101742.00
2019-05-16T04:39:31.928Z,101744.00
2019-05-16T04:42:01.759Z,101750.00
2019-05-16T04:44:31.339Z,101754.00
2019-05-16T04:47:01.742Z,101749.00
2019-05-16T04:49:32.091Z,101744.00
2019-05-16T04:52:01.825Z,101733.00
2019-05-16T04:54:31.301Z,101737.00
2019-05-16T04:57:01.673Z,101732.00
2019-05-16T04:59:31.466Z,101739.00
2019-05-16T05:02:02.018Z,101732.00
2019-05-16T05:04:31.933Z,101727.00
2019-05-16T05:07:01.405Z,101721.00
2019-05-16T05:09:31.821Z,101728.00
2019-05-16T05:12:04.670Z,101718.00
2019-05-16T05:14:32.638Z,101725.00
2019-05-16T05:17:05.218Z,101726.00
2019-05-16T05:19:33.276Z,101716.00
2019-05-16T05:22:03.511Z,101716.00
2019-05-16T05:24:32.973Z,101717.00
2019-05-16T05:27:02.536Z,101717.00
2019-05-16T05:29:32.018Z,101717.00
2019-05-16T05:32:04.285Z,101721.00
2019-05-16T05:34:32.674Z,101712.00
2019-05-16T05:37:02.230Z,101709.00
2019-05-16T05:39:31.837Z,101712.00
2019-05-16T05:42:01.352Z,101711.00
2019-05-16T05:44:30.851Z,101710.00
2019-05-16T05:47:01.003Z,101712.00
2019-05-16T05:49:31.378Z,101710.00
2019-05-16T05:52:00.971Z,101716.00
2019-05-16T05:54:30.964Z,101714.00
2019-05-16T05:57:00.758Z,101708.00
2019-05-16T05:59:30.737Z,101712.00
2019-05-16T06:02:01.059Z,101716.00
2019-05-16T06:04:30.660Z,101719.00
2019-05-16T06:07:01.201Z,101712.00
2019-05-16T06:09:33.115Z,101704.00
2019-05-16T06:12:03.751Z,101693.00
2019-05-16T06:14:33.241Z,101696.00
2019-05-16T06:17:06.165Z,101696.00
2019-05-16T06:19:35.694Z,101699.00
2019-05-16T06:22:05.242Z,101693.00
2019-05-16T06:24:34.722Z,101689.00
2019-05-16T06:27:04.272Z,101684.00
2019-05-16T06:29:33.708Z,101691.00
2019-05-16T06:32:03.199Z,101686.00
2019-05-16T06:34:32.641Z,101692.00
2019-05-16T06:37:02.208Z,101688.00
2019-05-16T06:39:41.284Z,101683.00
2019-05-16T06:42:02.960Z,101683.00
2019-05-16T06:44:32.446Z,101691.00
2019-05-16T06:47:16.021Z,101680.00
2019-05-16T06:49:33.094Z,101682.00
2019-05-16T06:52:02.574Z,101674.00
2019-05-16T06:54:32.093Z,101678.00
2019-05-16T06:57:01.542Z,101674.00
2019-05-16T06:59:31.160Z,101678.00
2019-05-16T07:02:00.645Z,101672.00
2019-05-16T07:04:30.577Z,101676.00
2019-05-16T07:07:05.611Z,101674.00
2019-05-16T07:09:35.097Z,101668.00
2019-05-16T07:12:04.902Z,101668.00
2019-05-16T07:14:34.434Z,101670.00
2019-05-16T07:17:03.955Z,101668.00
2019-05-16T07:19:35.483Z,101672.00
2019-05-16T07:22:04.842Z,101673.00
2019-05-16T07:24:34.349Z,101664.00
2019-05-16T07:27:03.888Z,101659.00
2019-05-16T07:29:33.356Z,101660.00
2019-05-16T07:32:02.834Z,101654.00
2019-05-16T07:34:32.415Z,101651.00
2019-05-16T07:37:01.939Z,101647.00
2019-05-16T07:39:31.431Z,101639.00
2019-05-16T07:42:00.898Z,101637.00
2019-05-16T07:44:31.160Z,101639.00
2019-05-16T07:47:01.127Z,101628.00
2019-05-16T07:49:30.882Z,101633.00
2019-05-16T07:52:00.715Z,101635.00
2019-05-16T07:54:34.449Z,101636.00
2019-05-16T07:57:18.552Z,101627.00
2019-05-16T07:59:32.901Z,101639.00
2019-05-16T08:02:02.404Z,101626.00
2019-05-16T08:04:31.912Z,101630.00
2019-05-16T08:07:01.609Z,101629.00
2019-05-16T08:09:31.144Z,101628.00
2019-05-16T08:14:35.058Z,101609.00
2019-05-16T08:17:03.285Z,101622.00
2019-05-16T08:19:32.760Z,101618.00
2019-05-16T08:22:02.266Z,101620.00
2019-05-16T08:24:35.555Z,101617.00
2019-05-16T08:27:02.953Z,101617.00
2019-05-16T08:29:32.428Z,101624.00
2019-05-16T08:34:33.773Z,101615.00
2019-05-16T08:37:03.275Z,101614.00
2019-05-16T08:39:32.778Z,101623.00
2019-05-16T08:42:08.140Z,101618.00
2019-05-16T08:44:33.518Z,101622.00
2019-05-16T08:49:34.389Z,101617.00
2019-05-16T08:50:05.861Z,101616.00
2019-05-16T08:50:10.160Z,101622.00
2019-05-16T08:52:04.066Z,101608.00
2019-05-16T08:54:33.636Z,101615.00
2019-05-16T08:57:25.504Z,101613.00
2019-05-16T08:59:34.319Z,101601.00
2019-05-16T09:02:04.045Z,101594.00
2019-05-16T09:04:36.038Z,101592.00
2019-05-16T09:07:05.619Z,101586.00
2019-05-16T09:09:44.133Z,101579.00
2019-05-16T09:12:07.843Z,101578.00
2019-05-16T09:14:39.096Z,101568.00
2019-05-16T09:17:09.202Z,101566.00
2019-05-16T09:18:32.828Z,101617.00
2019-05-16T09:19:39.325Z,101561.00
2019-05-16T09:22:08.809Z,101567.00
2019-05-16T09:24:38.399Z,101564.00
2019-05-16T09:27:12.020Z,101568.00
2019-05-16T09:29:39.332Z,101564.00
2019-05-16T09:32:17.108Z,101561.00
2019-05-16T09:34:40.172Z,101546.00
2019-05-16T09:37:09.699Z,101560.00
2019-05-16T09:39:39.249Z,101557.00
2019-05-16T09:42:08.819Z,101568.00
2019-05-16T09:44:38.671Z,101567.00
2019-05-16T09:47:08.254Z,101569.00
2019-05-16T09:49:37.733Z,101573.00
2019-05-16T09:52:07.618Z,101570.00
2019-05-16T09:54:37.860Z,101568.00
2019-05-16T09:57:07.653Z,101569.00
2019-05-16T09:59:37.216Z,101561.00
2019-05-16T10:02:07.629Z,101562.00
2019-05-16T10:04:37.338Z,101564.00
2019-05-16T10:07:06.893Z,101552.00
2019-05-16T10:09:44.513Z,101556.00
2019-05-16T10:12:15.036Z,101557.00
2019-05-16T10:14:38.905Z,101553.00
2019-05-16T10:17:08.480Z,101544.00
2019-05-16T10:19:37.935Z,101543.00
2019-05-16T10:22:07.567Z,101539.00
2019-05-16T10:24:37.574Z,101537.00
2019-05-16T10:27:07.517Z,101534.00
2019-05-16T10:29:37.764Z,101531.00
2019-05-16T10:32:07.952Z,101527.00
2019-05-16T10:34:37.444Z,101520.00
2019-05-16T10:37:06.945Z,101518.00
2019-05-16T10:39:37.388Z,101516.00
2019-05-16T10:42:07.020Z,101511.00
2019-05-16T10:44:38.542Z,101507.00
2019-05-16T10:47:07.815Z,101502.00
2019-05-16T10:49:40.919Z,101497.00
2019-05-16T10:52:08.460Z,101499.00
2019-05-16T10:54:52.785Z,101496.00
2019-05-16T10:57:09.370Z,101492.00
2019-05-16T11:00:06.708Z,101494.00
2019-05-16T11:02:10.261Z,101490.00
2019-05-16T11:04:53.279Z,101498.00
2019-05-16T11:07:11.060Z,101496.00
2019-05-16T11:09:53.508Z,101491.00
2019-05-16T11:12:11.849Z,101489.00
2019-05-16T11:14:41.325Z,101482.00
2019-05-16T11:17:13.257Z,101484.00
2019-05-16T11:19:42.027Z,101475.00
2019-05-16T11:22:11.549Z,101477.00
2019-05-16T11:24:41.087Z,101474.00
2019-05-16T11:27:10.761Z,101469.00
2019-05-16T11:29:40.314Z,101466.00
2019-05-16T11:32:09.888Z,101465.00
2019-05-16T11:34:39.384Z,101451.00
2019-05-16T11:37:08.876Z,101452.00
2019-05-16T11:39:38.355Z,101434.00
2019-05-16T11:42:08.332Z,101440.00
2019-05-16T11:44:38.326Z,101431.00
2019-05-16T11:47:08.413Z,101437.00
2019-05-16T11:49:38.162Z,101427.00
2019-05-16T11:52:07.726Z,101434.00
2019-05-16T11:54:38.724Z,101421.00
2019-05-16T11:57:08.358Z,101428.00
2019-05-16T11:59:37.848Z,101420.00
2019-05-16T12:02:07.330Z,101403.00
2019-05-16T12:04:37.558Z,101406.00
2019-05-16T12:07:07.757Z,101404.00
2019-05-16T12:09:47.215Z,101405.00
2019-05-16T12:12:08.873Z,101400.00
2019-05-16T12:14:38.432Z,101401.00
2019-05-16T12:17:07.946Z,101388.00
2019-05-16T12:19:43.587Z,101389.00
2019-05-16T12:22:08.703Z,101369.00
2019-05-16T12:24:41.356Z,101373.00
2019-05-16T12:27:09.341Z,101359.00
2019-05-16T12:29:38.822Z,101356.00
2019-05-16T12:32:08.660Z,101356.00
2019-05-16T12:34:38.340Z,101352.00
2019-05-16T12:37:07.817Z,101343.00
2019-05-16T12:39:38.043Z,101338.00
2019-05-16T12:42:08.595Z,101327.00
2019-05-16T12:44:38.359Z,101330.00
2019-05-16T12:47:07.984Z,101329.00
2019-05-16T12:49:37.484Z,101323.00
2019-05-16T12:52:07.026Z,101324.00
2019-05-16T12:54:37.128Z,101320.00
2019-05-16T12:57:07.022Z,101309.00
2019-05-16T12:59:37.043Z,101309.00
2019-05-16T13:02:07.497Z,101309.00
2019-05-16T13:04:37.737Z,101310.00
2019-05-16T13:07:09.385Z,101305.00
2019-05-16T13:09:38.617Z,101306.00
2019-05-16T13:12:08.122Z,101300.00
2019-05-16T13:14:40.295Z,101303.00
2019-05-16T13:17:09.030Z,101310.00
2019-05-16T13:19:44.314Z,101304.00
2019-05-16T13:22:09.617Z,101292.00
2019-05-16T13:24:39.158Z,101289.00
2019-05-16T13:27:08.755Z,101287.00
2019-05-16T13:29:38.388Z,101279.00
2019-05-16T13:32:07.976Z,101277.00
2019-05-16T13:34:38.020Z,101273.00
2019-05-16T13:37:07.978Z,101267.00
2019-05-16T13:39:37.498Z,101260.00
2019-05-16T13:42:07.941Z,101264.00
2019-05-16T13:44:37.898Z,101263.00
2019-05-16T13:47:07.835Z,101253.00
2019-05-16T13:49:38.597Z,101254.00
2019-05-16T13:52:08.409Z,101257.00
2019-05-16T13:54:37.931Z,101244.00
2019-05-16T13:57:07.532Z,101246.00
2019-05-16T13:59:37.577Z,101239.00
2019-05-16T14:02:08.084Z,101235.00
2019-05-16T14:04:37.723Z,101239.00
2019-05-16T14:07:07.773Z,101237.00
2019-05-16T14:09:43.332Z,101228.00
2019-05-16T14:12:12.819Z,101223.00
2019-05-16T14:14:42.757Z,101220.00
2019-05-16T14:17:14.541Z,101219.00
2019-05-16T14:19:43.539Z,101209.00
2019-05-16T14:22:13.033Z,101210.00
2019-05-16T14:24:42.525Z,101202.00
2019-05-16T14:27:12.055Z,101197.00
2019-05-16T14:29:41.531Z,101195.00
2019-05-16T14:32:11.210Z,101186.00
2019-05-16T14:34:40.756Z,101193.00
2019-05-16T14:37:10.458Z,101195.00
2019-05-16T14:39:40.000Z,101188.00
2019-05-16T14:42:09.525Z,101189.00
2019-05-16T14:44:59.813Z,101181.00
2019-05-16T14:47:10.767Z,101174.00
2019-05-16T14:49:40.205Z,101175.00
2019-05-16T14:52:09.695Z,101167.00
2019-05-16T14:54:39.275Z,101163.00
2019-05-16T14:57:08.812Z,101164.00
2019-05-16T14:59:38.299Z,101178.00
2019-05-16T15:02:07.794Z,101173.00
2019-05-16T15:04:37.757Z,101172.00
2019-05-16T15:07:07.289Z,101166.00
2019-05-16T15:09:38.029Z,101175.00
2019-05-16T15:12:07.976Z,101174.00
2019-05-16T15:14:37.763Z,101172.00
2019-05-16T15:17:07.278Z,101164.00
2019-05-16T15:19:39.465Z,101157.00
2019-05-16T15:22:08.953Z,101156.00
2019-05-16T15:24:38.452Z,101151.00
2019-05-16T15:27:08.525Z,101147.00
2019-05-16T15:29:38.124Z,101140.00
2019-05-16T15:32:07.530Z,101140.00
2019-05-16T15:34:38.014Z,101127.00
2019-05-16T15:37:08.116Z,101136.00
2019-05-16T15:39:37.872Z,101129.00
2019-05-16T15:42:08.150Z,101128.00
2019-05-16T15:44:37.942Z,101124.00
2019-05-16T15:47:08.333Z,101116.00
2019-05-16T15:49:38.037Z,101113.00
2019-05-16T15:52:07.732Z,101115.00
2019-05-16T15:54:38.827Z,101111.00
2019-05-16T15:57:08.315Z,101111.00
2019-05-16T15:59:37.851Z,101113.00
2019-05-16T16:02:07.525Z,101109.00
2019-05-16T16:04:37.480Z,101109.00
2019-05-16T16:07:07.844Z,101112.00
2019-05-16T16:09:38.063Z,101118.00
2019-05-16T16:12:10.594Z,101111.00
2019-05-16T16:14:38.949Z,101117.00
2019-05-16T16:17:08.687Z,101116.00
2019-05-16T16:19:38.151Z,101113.00
2019-05-16T16:22:07.944Z,101117.00
2019-05-16T16:24:37.642Z,101109.00
2019-05-16T16:27:07.486Z,101109.00
2019-05-16T16:29:37.107Z,101105.00
2019-05-16T16:32:09.550Z,101105.00
2019-05-16T16:34:38.980Z,101093.00
2019-05-16T16:37:08.732Z,101087.00
2019-05-16T16:39:38.245Z,101088.00
2019-05-16T16:42:07.892Z,101087.00
2019-05-16T16:44:38.897Z,101078.00
2019-05-16T16:47:08.417Z,101073.00
2019-05-16T16:49:39.603Z,101065.00
2019-05-16T16:52:09.089Z,101061.00
2019-05-16T16:54:38.615Z,101056.00
2019-05-16T16:57:08.193Z,101056.00
2019-05-16T16:59:37.744Z,101047.00
2019-05-16T17:02:07.220Z,101044.00
2019-05-16T17:04:38.634Z,101047.00
2019-05-16T17:07:08.100Z,101046.00
2019-05-16T17:09:37.606Z,101044.00
2019-05-16T17:12:07.202Z,101043.00
2019-05-16T17:14:37.149Z,101040.00
2019-05-16T17:17:07.182Z,101044.00
2019-05-16T17:19:36.855Z,101032.00
2019-05-16T17:22:17.248Z,101030.00
2019-05-16T17:24:37.919Z,101021.00
2019-05-16T17:27:07.899Z,101019.00
2019-05-16T17:29:37.466Z,101012.00
2019-05-16T17:32:10.245Z,101007.00
2019-05-16T17:34:38.222Z,101005.00
2019-05-16T17:37:09.670Z,101000.00
2019-05-16T17:39:39.327Z,100989.00
2019-05-16T17:42:08.758Z,100997.00
2019-05-16T17:44:38.220Z,100999.00
2019-05-16T17:47:07.716Z,100988.00
2019-05-16T17:49:37.312Z,100986.00
2019-05-16T17:52:07.134Z,100984.00
2019-05-16T17:54:37.292Z,100982.00
2019-05-16T17:57:07.575Z,100978.00
2019-05-16T17:59:38.002Z,100976.00
2019-05-16T18:02:07.692Z,100977.00
2019-05-16T18:04:40.581Z,100975.00
2019-05-16T18:07:08.577Z,100965.00
2019-05-16T18:09:38.124Z,100975.00
2019-05-16T18:12:10.135Z,100970.00
2019-05-16T18:14:39.664Z,100971.00
2019-05-16T18:17:09.163Z,100971.00
2019-05-16T18:19:38.665Z,100971.00
2019-05-16T18:22:08.173Z,100969.00
2019-05-16T18:24:37.740Z,100970.00
2019-05-16T18:27:07.324Z,100964.00
2019-05-16T18:29:36.771Z,100955.00
2019-05-16T18:32:07.006Z,100962.00
2019-05-16T18:34:37.681Z,100963.00
2019-05-16T18:37:07.389Z,100958.00
2019-05-16T18:39:37.075Z,100955.00
2019-05-16T18:42:06.787Z,100956.00
2019-05-16T18:44:36.678Z,100957.00
2019-05-16T18:47:10.434Z,100952.00
2019-05-16T18:49:37.710Z,100957.00
2019-05-16T18:52:07.176Z,100948.00
2019-05-16T18:54:37.536Z,100955.00
2019-05-16T18:57:07.321Z,100954.00
2019-05-16T18:59:37.060Z,100957.00
2019-05-16T19:02:10.022Z,100953.00
2019-05-16T19:04:38.123Z,100956.00
2019-05-16T19:07:08.003Z,100953.00
2019-05-16T19:09:37.763Z,100954.00
2019-05-16T19:12:07.323Z,100951.00
2019-05-16T19:14:37.055Z,100952.00
2019-05-16T19:17:20.652Z,100954.00
2019-05-16T19:19:37.840Z,100949.00
2019-05-16T19:22:07.360Z,100944.00
2019-05-16T19:24:36.915Z,100950.00
2019-05-16T19:27:06.813Z,100962.00
2019-05-16T19:29:36.957Z,100962.00
2019-05-16T19:32:06.883Z,100956.00
2019-05-16T19:34:36.418Z,100959.00
2019-05-16T19:37:07.044Z,100967.00
2019-05-16T19:39:37.200Z,100965.00
2019-05-16T19:42:06.884Z,100961.00
2019-05-16T19:44:37.163Z,100964.00
2019-05-16T19:47:07.188Z,100962.00
2019-05-16T19:49:37.128Z,100968.00
2019-05-16T19:52:07.372Z,100975.00
2019-05-16T19:54:36.791Z,100973.00
2019-05-16T19:57:07.506Z,100970.00
2019-05-16T19:59:37.019Z,100968.00
2019-05-16T20:02:07.698Z,100980.00
2019-05-16T20:04:37.436Z,100973.00
2019-05-16T20:07:07.574Z,100969.00
2019-05-16T20:09:37.079Z,100984.00
2019-05-16T20:12:07.680Z,100978.00
2019-05-16T20:14:37.404Z,100979.00
2019-05-16T20:17:07.496Z,100988.00
2019-05-16T20:19:37.155Z,100980.00
2019-05-16T20:22:07.735Z,100970.00
2019-05-16T20:24:37.364Z,100983.00
2019-05-16T20:27:08.081Z,100983.00
2019-05-16T20:29:37.745Z,100980.00
2019-05-16T20:32:08.247Z,100974.00
2019-05-16T20:34:38.503Z,100967.00
2019-05-16T20:37:09.325Z,100973.00
2019-05-16T20:39:39.007Z,100976.00
2019-05-16T20:42:08.539Z,100969.00
2019-05-16T20:44:38.063Z,100975.00
2019-05-16T20:47:07.703Z,100977.00
2019-05-16T20:49:37.445Z,100971.00
2019-05-16T20:52:07.294Z,100969.00
2019-05-16T20:54:37.665Z,100959.00
2019-05-16T20:57:07.311Z,100967.00
2019-05-16T20:59:36.851Z,100965.00
2019-05-16T21:02:06.973Z,100979.00
2019-05-16T21:04:37.467Z,100970.00
2019-05-16T21:07:11.099Z,100974.00
2019-05-16T21:09:38.604Z,100966.00
2019-05-16T21:12:08.386Z,100971.00
2019-05-16T21:14:38.020Z,100966.00
2019-05-16T21:17:07.590Z,100966.00
2019-05-16T21:19:39.251Z,100969.00
2019-05-16T21:22:08.468Z,100969.00
2019-05-16T21:24:37.936Z,100956.00
2019-05-16T21:27:07.415Z,100956.00
2019-05-16T21:29:37.060Z,100950.00
2019-05-16T21:32:07.465Z,100943.00
2019-05-16T21:34:37.019Z,100944.00
2019-05-16T21:37:14.366Z,100945.00
2019-05-16T21:39:37.713Z,100934.00
2019-05-16T21:42:07.718Z,100945.00
2019-05-16T21:44:37.551Z,100933.00
2019-05-16T21:47:07.273Z,100932.00
2019-05-16T21:49:37.129Z,100926.00
2019-05-16T21:52:06.723Z,100930.00
2019-05-16T21:54:36.840Z,100927.00
2019-05-16T21:57:06.406Z,100912.00
2019-05-16T21:59:37.520Z,100921.00
2019-05-16T22:02:07.513Z,100909.00
2019-05-16T22:04:37.031Z,100912.00
2019-05-16T22:07:07.301Z,100909.00
2019-05-16T22:09:37.200Z,100909.00
2019-05-16T22:12:06.935Z,100911.00
2019-05-16T22:14:47.115Z,100900.00
2019-05-16T22:17:16.976Z,100894.00
2019-05-16T22:19:46.951Z,100889.00
2019-05-16T22:22:16.677Z,100887.00
2019-05-16T22:24:49.223Z,100881.00
2019-05-16T22:27:17.558Z,100878.00
2019-05-16T22:29:47.033Z,100859.00
2019-05-16T22:32:16.561Z,100863.00
2019-05-16T22:34:47.662Z,100869.00
2019-05-16T22:37:17.405Z,100859.00
2019-05-16T22:39:46.924Z,100855.00
2019-05-16T22:42:17.635Z,100853.00
2019-05-16T22:44:47.382Z,100858.00
2019-05-16T22:47:17.308Z,100845.00
2019-05-16T22:49:47.517Z,100851.00
2019-05-16T22:52:17.406Z,100849.00
2019-05-16T22:54:47.570Z,100847.00
2019-05-16T22:57:17.713Z,100845.00
2019-05-16T22:59:47.388Z,100836.00
2019-05-16T23:02:17.034Z,100843.00
2019-05-16T23:04:47.491Z,100844.00
2019-05-16T23:07:17.338Z,100834.00
2019-05-16T23:09:47.315Z,100836.00
2019-05-16T23:12:17.358Z,100833.00
2019-05-16T23:14:47.070Z,100826.00
2019-05-16T23:17:17.255Z,100833.00
2019-05-16T23:19:47.556Z,100826.00
2019-05-16T23:22:17.172Z,100826.00
2019-05-16T23:24:46.757Z,100822.00
2019-05-16T23:27:16.278Z,100814.00
2019-05-16T23:29:47.420Z,100804.00
2019-05-16T23:32:17.008Z,100808.00
2019-05-16T23:34:48.505Z,100805.00
2019-05-16T23:37:17.927Z,100802.00
2019-05-16T23:39:47.599Z,100801.00
2019-05-16T23:42:17.035Z,100793.00
2019-05-16T23:44:47.362Z,100788.00
2019-05-16T23:47:17.030Z,100792.00
2019-05-16T23:49:47.293Z,100784.00
2019-05-16T23:52:16.979Z,100784.00
2019-05-16T23:54:47.504Z,100781.00
2019-05-16T23:57:17.298Z,100779.00
2019-05-16T23:59:47.279Z,100771.00
